createdAt,value
2023-03-21T00:00:40.308Z,49.34
2023-03-21T00:03:07.319Z,49.27
2023-03-21T00:05:33.898Z,49.39
2023-03-21T00:08:01.873Z,49.76
2023-03-21T00:10:39.496Z,49.60
2023-03-21T00:13:07.855Z,49.33
2023-03-21T00:15:48.496Z,49.53
2023-03-21T00:18:23.031Z,49.57
2023-03-21T00:21:29.369Z,49.29
2023-03-21T00:23:48.193Z,49.34
2023-03-21T00:26:15.504Z,49.44
2023-03-21T00:28:43.239Z,49.39
2023-03-21T00:31:10.517Z,49.44
2023-03-21T00:33:39.090Z,49.24
2023-03-21T00:36:07.068Z,49.72
2023-03-21T00:38:34.230Z,49.48
2023-03-21T00:41:10.911Z,49.68
2023-03-21T00:43:44.124Z,49.61
2023-03-21T00:46:10.809Z,49.58
2023-03-21T00:48:37.441Z,49.42
2023-03-21T00:51:21.454Z,49.35
2023-03-21T00:53:47.869Z,49.39
2023-03-21T00:56:14.502Z,49.28
2023-03-21T00:58:41.041Z,49.45
2023-03-21T01:01:09.444Z,49.22
2023-03-21T01:03:42.593Z,49.44
2023-03-21T01:06:13.157Z,49.26
2023-03-21T01:08:52.314Z,49.25
2023-03-21T01:11:22.860Z,49.11
2023-03-21T01:14:20.982Z,49.20
2023-03-21T01:16:37.041Z,49.41
2023-03-21T01:19:06.965Z,49.37
2023-03-21T01:21:34.449Z,49.50
2023-03-21T01:24:01.763Z,49.55
2023-03-21T01:26:28.725Z,49.42
2023-03-21T01:28:55.492Z,49.45
2023-03-21T01:31:22.056Z,49.52
2023-03-21T01:33:48.725Z,49.51
2023-03-21T01:36:21.101Z,49.63
2023-03-21T01:38:48.890Z,49.86
2023-03-21T01:41:42.501Z,49.86
2023-03-21T01:44:19.319Z,49.76
2023-03-21T01:47:03.598Z,49.10
2023-03-21T01:49:47.888Z,49.58
2023-03-21T01:52:33.504Z,49.61
2023-03-21T01:55:04.603Z,49.64
2023-03-21T01:57:43.780Z,49.64
2023-03-21T02:00:15.792Z,49.83
2023-03-21T02:02:58.136Z,49.53
2023-03-21T02:06:10.170Z,49.87
2023-03-21T02:08:39.810Z,49.72
2023-03-21T02:11:07.970Z,49.18
2023-03-21T02:13:35.560Z,49.73
2023-03-21T02:16:15.279Z,49.59
2023-03-21T02:18:50.710Z,49.50
2023-03-21T02:21:47.693Z,49.74
2023-03-21T02:24:46.266Z,49.20
2023-03-21T02:27:21.901Z,49.47
2023-03-21T02:30:01.848Z,49.49
2023-03-21T02:33:08.751Z,49.63
2023-03-21T02:35:56.837Z,49.68
2023-03-21T02:38:32.464Z,49.51
2023-03-21T02:41:17.949Z,49.56
2023-03-21T02:44:08.842Z,49.86
2023-03-21T02:46:51.257Z,49.53
2023-03-21T02:49:43.121Z,49.45
2023-03-21T02:52:28.262Z,49.10
2023-03-21T02:55:04.888Z,49.35
2023-03-21T02:57:42.168Z,49.65
2023-03-21T03:00:16.658Z,49.24
2023-03-21T03:02:44.028Z,49.39
2023-03-21T03:05:21.214Z,49.69
2023-03-21T03:08:17.848Z,49.19
2023-03-21T03:10:56.909Z,49.63
2023-03-21T03:13:46.338Z,49.70
2023-03-21T03:16:36.824Z,49.40
2023-03-21T03:19:08.196Z,49.44
2023-03-21T03:21:56.595Z,49.50
2023-03-21T03:24:38.572Z,49.63
2023-03-21T03:27:15.590Z,49.83
2023-03-21T03:29:44.179Z,49.54
2023-03-21T03:32:16.362Z,49.67
2023-03-21T03:34:49.598Z,49.32
2023-03-21T03:37:22.081Z,49.40
2023-03-21T03:39:58.025Z,49.51
2023-03-21T03:42:30.326Z,49.67
2023-03-21T03:44:57.779Z,49.70
2023-03-21T03:47:38.015Z,49.60
2023-03-21T03:50:19.426Z,49.62
2023-03-21T03:52:57.185Z,49.31
2023-03-21T03:55:27.255Z,49.49
2023-03-21T03:57:55.287Z,49.74
2023-03-21T04:00:21.918Z,49.36
2023-03-21T04:02:48.643Z,49.54
2023-03-21T04:05:15.370Z,49.73
2023-03-21T04:07:41.893Z,49.42
2023-03-21T04:10:09.058Z,49.77
2023-03-21T04:12:35.618Z,49.53
2023-03-21T04:15:09.965Z,49.56
2023-03-21T04:17:39.482Z,49.20
2023-03-21T04:20:12.324Z,49.45
2023-03-21T04:22:43.421Z,49.55
2023-03-21T04:25:10.566Z,49.75
2023-03-21T04:27:37.391Z,49.95
2023-03-21T04:30:06.027Z,49.51
2023-03-21T04:32:33.849Z,49.59
2023-03-21T04:35:01.102Z,49.75
2023-03-21T04:37:27.965Z,49.88
2023-03-21T04:39:54.688Z,49.36
2023-03-21T04:42:21.262Z,49.45
2023-03-21T04:44:49.178Z,49.58
2023-03-21T04:47:16.034Z,49.58
2023-03-21T04:49:43.391Z,49.34
2023-03-21T04:52:09.907Z,49.66
2023-03-21T04:54:36.979Z,49.20
2023-03-21T04:57:04.574Z,49.55
2023-03-21T04:59:31.676Z,49.66
2023-03-21T05:01:59.534Z,49.14
2023-03-21T05:04:27.376Z,49.47
2023-03-21T05:06:54.838Z,49.12
2023-03-21T05:09:22.288Z,49.40
2023-03-21T05:11:49.090Z,49.43
2023-03-21T05:14:18.670Z,49.73
2023-03-21T05:16:48.562Z,49.32
2023-03-21T05:19:17.384Z,49.48
2023-03-21T05:21:45.011Z,49.28
2023-03-21T05:24:15.133Z,49.66
2023-03-21T05:26:43.413Z,49.11
2023-03-21T05:29:11.185Z,49.58
2023-03-21T05:31:37.718Z,49.68
2023-03-21T05:34:04.221Z,49.59
2023-03-21T05:36:33.989Z,49.57
2023-03-21T05:39:01.837Z,49.41
2023-03-21T05:41:28.435Z,49.41
2023-03-21T05:43:55.172Z,49.56
2023-03-21T05:46:21.691Z,49.49
2023-03-21T05:48:48.192Z,49.41
2023-03-21T05:51:15.195Z,49.66
2023-03-21T05:53:41.797Z,49.73
2023-03-21T05:56:08.928Z,49.42
2023-03-21T05:58:35.485Z,48.65
2023-03-21T06:01:01.987Z,49.27
2023-03-21T06:03:28.634Z,49.46
2023-03-21T06:05:55.223Z,49.17
2023-03-21T06:08:21.718Z,49.71
2023-03-21T06:10:48.253Z,49.39
2023-03-21T06:13:15.845Z,49.47
2023-03-21T06:15:42.487Z,49.24
2023-03-21T06:18:09.026Z,49.48
2023-03-21T06:20:35.567Z,48.94
2023-03-21T06:23:02.099Z,49.68
2023-03-21T06:25:28.611Z,49.20
2023-03-21T06:27:55.148Z,49.36
2023-03-21T06:30:21.712Z,49.01
2023-03-21T06:32:48.257Z,49.30
2023-03-21T06:35:15.400Z,49.29
2023-03-21T06:37:42.980Z,49.55
2023-03-21T06:40:13.759Z,49.37
2023-03-21T06:42:40.385Z,49.08
2023-03-21T06:45:07.461Z,49.27
2023-03-21T06:47:34.107Z,49.00
2023-03-21T06:50:00.686Z,49.19
2023-03-21T06:52:27.187Z,49.28
2023-03-21T06:54:53.718Z,49.62
2023-03-21T06:57:21.879Z,48.69
2023-03-21T06:59:48.649Z,49.30
2023-03-21T07:02:15.210Z,49.45
2023-03-21T07:04:41.924Z,49.15
2023-03-21T07:07:08.539Z,49.39
2023-03-21T07:09:35.057Z,48.99
2023-03-21T07:12:01.553Z,49.00
2023-03-21T07:14:28.205Z,49.24
2023-03-21T07:16:54.697Z,49.02
2023-03-21T07:19:21.191Z,49.22
2023-03-21T07:21:47.673Z,49.12
2023-03-21T07:24:14.158Z,49.41
2023-03-21T07:26:40.993Z,49.09
2023-03-21T07:29:07.519Z,48.95
2023-03-21T07:31:35.599Z,48.87
2023-03-21T07:34:02.176Z,48.80
2023-03-21T07:36:28.709Z,48.78
2023-03-21T07:38:55.281Z,48.86
2023-03-21T07:41:21.785Z,48.96
2023-03-21T07:43:48.362Z,49.05
2023-03-21T07:46:14.922Z,48.83
2023-03-21T07:48:41.482Z,49.15
2023-03-21T07:51:08.038Z,48.94
2023-03-21T07:53:34.693Z,48.98
2023-03-21T07:56:01.384Z,48.93
2023-03-21T07:58:28.561Z,48.84
2023-03-21T08:00:58.171Z,48.86
2023-03-21T08:03:26.351Z,49.08
2023-03-21T08:05:52.892Z,48.88
2023-03-21T08:08:19.471Z,48.89
2023-03-21T08:10:46.166Z,48.71
2023-03-21T08:13:13.000Z,48.82
2023-03-21T08:15:42.138Z,48.84
2023-03-21T08:18:10.009Z,48.55
2023-03-21T08:20:36.559Z,48.94
2023-03-21T08:23:03.165Z,48.46
2023-03-21T08:25:29.860Z,48.71
2023-03-21T08:27:56.549Z,48.86
2023-03-21T08:30:26.322Z,48.64
2023-03-21T08:33:00.462Z,48.89
2023-03-21T08:35:28.546Z,48.89
2023-03-21T08:37:55.228Z,48.70
2023-03-21T08:40:21.883Z,48.81
2023-03-21T08:42:48.584Z,48.63
2023-03-21T08:45:17.312Z,48.70
2023-03-21T08:47:44.197Z,48.86
2023-03-21T08:50:14.307Z,48.70
2023-03-21T08:52:41.176Z,48.49
2023-03-21T08:55:09.642Z,48.94
2023-03-21T08:57:36.786Z,48.43
2023-03-21T09:00:15.153Z,48.72
2023-03-21T09:02:43.257Z,48.43
2023-03-21T09:05:11.958Z,48.85
2023-03-21T09:07:40.344Z,48.28
2023-03-21T09:10:23.180Z,48.39
2023-03-21T09:12:52.312Z,48.54
2023-03-21T09:15:22.052Z,48.81
2023-03-21T09:17:52.548Z,48.95
2023-03-21T09:20:30.949Z,48.91
2023-03-21T09:22:58.739Z,48.65
2023-03-21T09:25:29.441Z,48.88
2023-03-21T09:27:56.483Z,48.98
2023-03-21T09:30:25.684Z,48.81
2023-03-21T09:32:53.612Z,48.57
2023-03-21T09:35:20.822Z,48.78
2023-03-21T09:37:49.000Z,48.68
2023-03-21T09:40:31.318Z,48.96
2023-03-21T09:43:15.433Z,48.67
2023-03-21T09:45:58.658Z,48.83
2023-03-21T09:48:33.543Z,48.42
2023-03-21T09:51:02.849Z,48.64
2023-03-21T09:53:35.746Z,48.46
2023-03-21T09:56:03.707Z,48.75
2023-03-21T09:58:39.973Z,48.89
2023-03-21T10:01:22.134Z,49.06
2023-03-21T10:03:53.660Z,48.82
2023-03-21T10:06:28.857Z,48.73
2023-03-21T10:09:16.994Z,48.81
2023-03-21T10:11:50.224Z,48.74
2023-03-21T10:14:30.474Z,49.13
2023-03-21T10:17:09.250Z,48.93
2023-03-21T10:19:35.823Z,48.68
2023-03-21T10:22:03.906Z,49.02
2023-03-21T10:24:33.749Z,48.68
2023-03-21T10:27:02.514Z,48.54
2023-03-21T10:29:42.219Z,48.50
2023-03-21T10:32:17.460Z,48.91
2023-03-21T10:34:48.031Z,48.67
2023-03-21T10:37:16.740Z,48.78
2023-03-21T10:39:49.350Z,48.85
2023-03-21T10:42:30.828Z,48.90
2023-03-21T10:44:57.768Z,48.76
2023-03-21T10:47:32.503Z,48.99
2023-03-21T10:50:09.586Z,48.82
2023-03-21T10:52:41.645Z,48.42
2023-03-21T10:55:19.296Z,48.76
2023-03-21T10:57:47.299Z,48.66
2023-03-21T11:00:21.832Z,48.83
2023-03-21T11:02:51.364Z,48.65
2023-03-21T11:05:22.546Z,48.66
2023-03-21T11:08:17.855Z,48.72
2023-03-21T11:10:54.040Z,48.70
2023-03-21T11:13:44.186Z,48.84
2023-03-21T11:16:27.397Z,48.64
2023-03-21T11:19:01.363Z,48.45
2023-03-21T11:21:34.575Z,48.82
2023-03-21T11:24:03.244Z,48.53
2023-03-21T11:26:36.918Z,48.64
2023-03-21T11:29:34.086Z,49.03
2023-03-21T11:32:10.175Z,48.65
2023-03-21T11:34:53.193Z,48.75
2023-03-21T11:37:46.005Z,48.53
2023-03-21T11:40:29.330Z,48.90
2023-03-21T11:43:01.005Z,48.62
2023-03-21T11:45:36.048Z,48.81
2023-03-21T11:48:12.905Z,48.77
2023-03-21T11:50:47.478Z,48.71
2023-03-21T11:53:32.001Z,48.41
2023-03-21T11:55:58.459Z,48.15
2023-03-21T11:58:30.735Z,48.63
2023-03-21T12:01:10.062Z,48.48
2023-03-21T12:03:49.024Z,48.80
2023-03-21T12:06:46.793Z,49.13
2023-03-21T12:09:37.349Z,49.25
2023-03-21T12:12:22.209Z,48.58
2023-03-21T12:15:13.304Z,48.52
2023-03-21T12:18:06.187Z,48.43
2023-03-21T12:20:51.041Z,48.57
2023-03-21T12:23:36.948Z,48.44
2023-03-21T12:26:03.419Z,48.29
2023-03-21T12:28:46.957Z,48.18
2023-03-21T12:31:48.248Z,48.10
2023-03-21T12:34:52.573Z,48.08
2023-03-21T12:37:34.257Z,47.80
2023-03-21T12:40:27.126Z,47.78
2023-03-21T12:43:31.062Z,47.79
2023-03-21T12:46:05.832Z,47.66
2023-03-21T12:48:47.472Z,47.42
2023-03-21T12:51:19.035Z,48.10
2023-03-21T12:53:59.622Z,47.72
2023-03-21T12:56:33.994Z,48.03
2023-03-21T12:59:25.564Z,47.56
2023-03-21T13:01:56.852Z,47.56
2023-03-21T13:04:44.157Z,47.27
2023-03-21T13:07:17.567Z,47.41
2023-03-21T13:09:44.511Z,47.70
2023-03-21T13:12:41.679Z,47.02
2023-03-21T13:15:27.416Z,47.17
2023-03-21T13:18:12.260Z,47.51
2023-03-21T13:20:47.742Z,47.34
2023-03-21T13:23:14.355Z,47.56
2023-03-21T13:25:47.622Z,47.20
2023-03-21T13:28:22.905Z,47.57
2023-03-21T13:30:50.219Z,47.31
2023-03-21T13:33:24.052Z,47.18
2023-03-21T13:36:07.227Z,47.29
2023-03-21T13:38:38.305Z,47.58
2023-03-21T13:41:18.040Z,47.77
2023-03-21T13:44:02.846Z,47.55
2023-03-21T13:46:29.544Z,47.73
2023-03-21T13:49:00.620Z,47.67
2023-03-21T13:51:48.516Z,47.40
2023-03-21T13:54:15.376Z,47.33
2023-03-21T13:56:45.152Z,47.40
2023-03-21T13:59:16.903Z,47.39
2023-03-21T14:02:15.708Z,47.23
2023-03-21T14:05:00.312Z,47.36
2023-03-21T14:07:42.441Z,47.26
2023-03-21T14:10:23.609Z,47.41
2023-03-21T14:12:51.876Z,47.25
2023-03-21T14:15:22.499Z,47.37
2023-03-21T14:17:56.518Z,47.74
2023-03-21T14:20:34.494Z,47.17
2023-03-21T14:23:04.577Z,47.59
2023-03-21T14:25:44.586Z,47.60
2023-03-21T14:28:19.965Z,47.19
2023-03-21T14:30:51.813Z,47.24
2023-03-21T14:33:31.461Z,47.11
2023-03-21T14:36:08.834Z,47.60
2023-03-21T14:38:38.382Z,47.42
2023-03-21T14:41:06.527Z,47.67
2023-03-21T14:43:36.147Z,47.62
2023-03-21T14:46:02.687Z,47.43
2023-03-21T14:48:35.919Z,47.77
2023-03-21T14:51:05.964Z,47.35
2023-03-21T14:53:36.904Z,47.71
2023-03-21T14:56:15.380Z,47.30
2023-03-21T14:58:45.539Z,47.21
2023-03-21T15:01:28.909Z,47.23
2023-03-21T15:03:55.818Z,47.21
2023-03-21T15:06:22.368Z,47.72
2023-03-21T15:08:56.184Z,47.74
2023-03-21T15:11:42.304Z,47.69
2023-03-21T15:14:13.134Z,47.18
2023-03-21T15:16:40.509Z,47.75
2023-03-21T15:19:11.268Z,47.83
2023-03-21T15:21:41.002Z,47.34
2023-03-21T15:24:23.052Z,47.67
2023-03-21T15:26:51.602Z,47.34
2023-03-21T15:29:18.459Z,47.40
2023-03-21T15:31:48.272Z,47.71
2023-03-21T15:34:22.025Z,47.65
2023-03-21T15:36:54.763Z,47.13
2023-03-21T15:39:23.781Z,47.65
2023-03-21T15:42:25.348Z,47.51
2023-03-21T15:44:55.230Z,47.34
2023-03-21T15:47:41.513Z,47.76
2023-03-21T15:50:25.382Z,47.47
2023-03-21T15:52:52.691Z,47.41
2023-03-21T15:55:28.243Z,47.62
2023-03-21T15:58:01.359Z,47.71
2023-03-21T16:00:38.595Z,47.98
2023-03-21T16:03:13.267Z,47.94
2023-03-21T16:05:40.079Z,47.61
2023-03-21T16:08:19.861Z,47.88
2023-03-21T16:10:48.829Z,48.26
2023-03-21T16:13:15.352Z,48.04
2023-03-21T16:15:41.972Z,47.81
2023-03-21T16:18:11.198Z,47.87
2023-03-21T16:20:44.951Z,47.73
2023-03-21T16:23:15.712Z,47.97
2023-03-21T16:25:43.944Z,47.65
2023-03-21T16:28:14.273Z,47.47
2023-03-21T16:30:41.062Z,47.50
2023-03-21T16:33:11.743Z,47.27
2023-03-21T16:35:38.678Z,46.84
2023-03-21T16:38:05.528Z,46.82
2023-03-21T16:40:41.448Z,47.25
2023-03-21T16:43:08.141Z,47.19
2023-03-21T16:45:34.730Z,46.74
2023-03-21T16:48:01.362Z,47.19
2023-03-21T16:50:42.970Z,46.84
2023-03-21T16:53:09.713Z,46.39
2023-03-21T16:55:37.480Z,46.93
2023-03-21T16:58:04.778Z,46.48
2023-03-21T17:00:32.081Z,46.85
2023-03-21T17:03:08.901Z,46.40
2023-03-21T17:05:35.429Z,46.86
2023-03-21T17:08:02.886Z,46.77
2023-03-21T17:10:31.312Z,46.17
2023-03-21T17:12:58.118Z,46.28
2023-03-21T17:15:25.167Z,46.45
2023-03-21T17:17:52.033Z,46.77
2023-03-21T17:20:24.662Z,46.82
2023-03-21T17:22:51.326Z,46.70
2023-03-21T17:25:18.623Z,46.97
2023-03-21T17:27:46.014Z,47.00
2023-03-21T17:30:27.900Z,47.13
2023-03-21T17:32:54.765Z,46.59
2023-03-21T17:35:22.733Z,46.89
2023-03-21T17:37:50.354Z,46.93
2023-03-21T17:40:23.392Z,47.03
2023-03-21T17:42:51.035Z,46.99
2023-03-21T17:45:18.280Z,47.22
2023-03-21T17:47:44.898Z,47.45
2023-03-21T17:50:22.838Z,47.53
2023-03-21T17:52:50.874Z,47.34
2023-03-21T17:55:21.012Z,47.56
2023-03-21T17:57:48.851Z,46.95
2023-03-21T18:00:22.750Z,47.22
2023-03-21T18:02:49.882Z,47.56
2023-03-21T18:05:16.583Z,47.55
2023-03-21T18:10:31.635Z,47.19
2023-03-21T18:12:58.979Z,46.97
2023-03-21T18:15:30.177Z,47.15
2023-03-21T18:17:57.202Z,46.98
2023-03-21T18:20:49.945Z,47.24
2023-03-21T18:23:15.477Z,46.87
2023-03-21T18:25:42.035Z,46.81
2023-03-21T18:28:11.799Z,46.96
2023-03-21T18:31:00.246Z,47.28
2023-03-21T18:33:27.218Z,47.54
2023-03-21T18:35:58.800Z,47.67
2023-03-21T18:38:25.970Z,47.95
2023-03-21T18:40:52.515Z,47.37
2023-03-21T18:46:07.133Z,47.97
2023-03-21T18:48:34.469Z,47.33
2023-03-21T18:51:02.403Z,47.25
2023-03-21T18:53:29.791Z,47.83
2023-03-21T18:55:57.407Z,47.60
2023-03-21T18:58:24.826Z,47.68
2023-03-21T19:00:53.386Z,47.52
2023-03-21T19:03:34.105Z,47.16
2023-03-21T19:06:03.747Z,47.54
2023-03-21T19:08:30.811Z,47.45
2023-03-21T19:11:00.166Z,47.84
2023-03-21T19:13:30.153Z,47.72
2023-03-21T19:15:57.108Z,47.52
2023-03-21T19:18:41.551Z,47.34
2023-03-21T19:21:10.860Z,47.83
2023-03-21T19:24:11.648Z,48.05
2023-03-21T19:26:25.391Z,47.59
2023-03-21T19:28:52.660Z,48.14
2023-03-21T19:31:21.005Z,48.14
2023-03-21T19:33:48.581Z,47.89
2023-03-21T19:36:21.813Z,48.05
2023-03-21T19:38:48.788Z,47.94
2023-03-21T19:41:15.544Z,47.89
2023-03-21T19:43:52.837Z,47.88
2023-03-21T19:46:23.125Z,47.87
2023-03-21T19:48:50.171Z,47.91
2023-03-21T19:51:32.988Z,48.28
2023-03-21T19:54:02.634Z,48.07
2023-03-21T19:56:31.388Z,48.42
2023-03-21T19:58:58.673Z,47.99
2023-03-21T20:01:26.299Z,48.03
2023-03-21T20:03:53.360Z,47.90
2023-03-21T20:06:22.516Z,48.27
2023-03-21T20:09:27.324Z,48.33
2023-03-21T20:11:35.924Z,48.23
2023-03-21T20:14:03.330Z,47.98
2023-03-21T20:16:35.128Z,48.31
2023-03-21T20:19:08.857Z,48.41
2023-03-21T20:21:46.124Z,48.52
2023-03-21T20:24:16.422Z,48.29
2023-03-21T20:26:45.149Z,48.49
2023-03-21T20:30:00.204Z,48.93
2023-03-21T20:31:58.630Z,48.84
2023-03-21T20:34:25.187Z,48.83
2023-03-21T20:36:51.742Z,48.92
2023-03-21T20:39:18.311Z,48.79
2023-03-21T20:41:44.815Z,48.87
2023-03-21T20:44:44.721Z,49.39
2023-03-21T20:46:59.904Z,49.35
2023-03-21T20:49:26.593Z,49.47
2023-03-21T20:54:42.281Z,49.52
2023-03-21T20:57:09.116Z,49.61
2023-03-21T20:59:35.842Z,49.68
2023-03-21T21:02:03.180Z,49.67
2023-03-21T21:04:48.245Z,49.92
2023-03-21T21:07:20.266Z,50.04
2023-03-21T21:09:47.523Z,49.90
2023-03-21T21:12:16.389Z,49.92
2023-03-21T21:14:43.678Z,49.92
2023-03-21T21:17:30.761Z,50.09
2023-03-21T21:19:56.870Z,50.01
2023-03-21T21:22:23.436Z,49.49
2023-03-21T21:24:50.005Z,50.16
2023-03-21T21:27:16.594Z,50.04
2023-03-21T21:29:43.355Z,50.53
2023-03-21T21:32:10.177Z,50.09
2023-03-21T21:34:37.348Z,50.29
2023-03-21T21:37:03.883Z,49.95
2023-03-21T21:39:35.901Z,50.39
2023-03-21T21:42:02.709Z,50.22
2023-03-21T21:44:29.445Z,49.99
2023-03-21T21:46:57.474Z,50.37
2023-03-21T21:49:24.117Z,50.04
2023-03-21T21:51:50.719Z,49.66
2023-03-21T21:54:18.229Z,50.21
2023-03-21T21:56:48.311Z,49.70
2023-03-21T21:59:22.028Z,49.75
2023-03-21T22:01:51.205Z,50.04
2023-03-21T22:04:18.385Z,49.68
2023-03-21T22:06:44.968Z,50.44
2023-03-21T22:09:11.544Z,50.15
2023-03-21T22:11:38.069Z,50.45
2023-03-21T22:14:04.617Z,50.26
2023-03-21T22:16:31.189Z,49.69
2023-03-21T22:18:57.725Z,50.10
2023-03-21T22:21:24.460Z,50.19
2023-03-21T22:23:51.065Z,50.32
2023-03-21T22:26:17.872Z,49.73
2023-03-21T22:28:44.467Z,49.47
2023-03-21T22:31:13.813Z,49.95
2023-03-21T22:33:40.347Z,50.00
2023-03-21T22:36:07.472Z,49.83
2023-03-21T22:38:34.636Z,49.92
2023-03-21T22:41:04.996Z,50.16
2023-03-21T22:43:34.188Z,49.61
2023-03-21T22:46:05.403Z,50.05
2023-03-21T22:48:32.547Z,49.57
2023-03-21T22:51:00.321Z,49.85
2023-03-21T22:53:27.256Z,49.47
2023-03-21T22:55:54.108Z,49.97
2023-03-21T22:58:20.802Z,49.79
2023-03-21T23:00:47.538Z,49.73
2023-03-21T23:03:16.546Z,49.42
2023-03-21T23:05:44.115Z,49.67
2023-03-21T23:08:11.041Z,49.32
2023-03-21T23:10:39.328Z,49.83
2023-03-21T23:13:06.799Z,49.68
2023-03-21T23:15:33.706Z,49.53
2023-03-21T23:18:00.282Z,49.60
2023-03-21T23:20:26.880Z,49.70
2023-03-21T23:22:53.495Z,49.12
2023-03-21T23:25:20.543Z,49.98
2023-03-21T23:27:47.341Z,49.54
2023-03-21T23:30:14.127Z,49.50
2023-03-21T23:32:40.808Z,48.88
2023-03-21T23:35:08.342Z,49.17
2023-03-21T23:37:34.952Z,49.57
2023-03-21T23:40:01.554Z,49.68
2023-03-21T23:42:29.358Z,49.60
2023-03-21T23:44:56.091Z,49.81
2023-03-21T23:47:22.640Z,49.38
2023-03-21T23:49:49.931Z,49.49
2023-03-21T23:52:16.477Z,49.33
2023-03-21T23:54:43.168Z,49.23
2023-03-21T23:57:10.327Z,49.96
2023-03-21T23:59:36.842Z,49.43
